sensor_id;sensor_type;location;lat;lon;timestamp;P1;durP1;ratioP1;P2;durP2;ratioP2
76814;SDS011;65768;49.906;19.384;2023-07-20T00:01:13;4.70;;;2.80;;
76814;SDS011;65768;49.906;19.384;2023-07-20T00:03:41;7.80;;;2.90;;
76814;SDS011;65768;49.906;19.384;2023-07-20T00:06:09;4.40;;;2.70;;
76814;SDS011;65768;49.906;19.384;2023-07-20T00:08:37;5.40;;;3.60;;
76814;SDS011;65768;49.906;19.384;2023-07-20T00:11:05;7.10;;;3.70;;
76814;SDS011;65768;49.906;19.384;2023-07-20T00:13:33;8.10;;;4.30;;
76814;SDS011;65768;49.906;19.384;2023-07-20T00:16:02;7.60;;;4.30;;
76814;SDS011;65768;49.906;19.384;2023-07-20T00:18:30;6.90;;;3.60;;
76814;SDS011;65768;49.906;19.384;2023-07-20T00:20:59;7.00;;;3.80;;
76814;SDS011;65768;49.906;19.384;2023-07-20T00:23:30;7.10;;;3.70;;
76814;SDS011;65768;49.906;19.384;2023-07-20T00:25:58;7.10;;;4.50;;
76814;SDS011;65768;49.906;19.384;2023-07-20T00:28:26;9.50;;;5.00;;
76814;SDS011;65768;49.906;19.384;2023-07-20T00:30:54;8.90;;;4.70;;
76814;SDS011;65768;49.906;19.384;2023-07-20T00:33:23;8.90;;;4.70;;
76814;SDS011;65768;49.906;19.384;2023-07-20T00:35:51;8.40;;;4.70;;
76814;SDS011;65768;49.906;19.384;2023-07-20T00:38:19;8.70;;;4.80;;
76814;SDS011;65768;49.906;19.384;2023-07-20T00:40:48;8.50;;;4.80;;
76814;SDS011;65768;49.906;19.384;2023-07-20T00:43:17;7.90;;;4.40;;
76814;SDS011;65768;49.906;19.384;2023-07-20T00:45:45;8.30;;;4.20;;
76814;SDS011;65768;49.906;19.384;2023-07-20T00:48:13;6.30;;;4.40;;
76814;SDS011;65768;49.906;19.384;2023-07-20T00:50:42;8.90;;;4.60;;
76814;SDS011;65768;49.906;19.384;2023-07-20T00:53:12;6.80;;;3.80;;
76814;SDS011;65768;49.906;19.384;2023-07-20T00:55:40;6.10;;;3.40;;
76814;SDS011;65768;49.906;19.384;2023-07-20T00:58:08;8.70;;;4.30;;
76814;SDS011;65768;49.906;19.384;2023-07-20T01:00:37;8.50;;;4.50;;
76814;SDS011;65768;49.906;19.384;2023-07-20T01:03:05;7.70;;;4.50;;
76814;SDS011;65768;49.906;19.384;2023-07-20T01:12:17;6.70;;;4.40;;
76814;SDS011;65768;49.906;19.384;2023-07-20T01:14:37;6.40;;;3.70;;
76814;SDS011;65768;49.906;19.384;2023-07-20T01:17:06;6.20;;;3.80;;
76814;SDS011;65768;49.906;19.384;2023-07-20T01:19:34;5.90;;;3.70;;
76814;SDS011;65768;49.906;19.384;2023-07-20T01:22:10;7.30;;;3.80;;
76814;SDS011;65768;49.906;19.384;2023-07-20T01:30:45;7.00;;;4.00;;
76814;SDS011;65768;49.906;19.384;2023-07-20T01:33:34;6.00;;;3.70;;
76814;SDS011;65768;49.906;19.384;2023-07-20T01:36:03;7.70;;;3.40;;
76814;SDS011;65768;49.906;19.384;2023-07-20T01:38:33;6.20;;;2.80;;
76814;SDS011;65768;49.906;19.384;2023-07-20T01:41:01;6.80;;;2.50;;
76814;SDS011;65768;49.906;19.384;2023-07-20T01:43:30;5.10;;;2.90;;
76814;SDS011;65768;49.906;19.384;2023-07-20T01:45:58;6.10;;;3.20;;
76814;SDS011;65768;49.906;19.384;2023-07-20T01:48:26;5.70;;;3.80;;
76814;SDS011;65768;49.906;19.384;2023-07-20T01:50:54;6.20;;;3.10;;
76814;SDS011;65768;49.906;19.384;2023-07-20T01:53:22;6.60;;;3.20;;
76814;SDS011;65768;49.906;19.384;2023-07-20T01:55:52;5.20;;;2.70;;
76814;SDS011;65768;49.906;19.384;2023-07-20T01:58:22;5.60;;;2.90;;
76814;SDS011;65768;49.906;19.384;2023-07-20T02:00:51;4.60;;;2.70;;
76814;SDS011;65768;49.906;19.384;2023-07-20T02:03:19;5.00;;;2.60;;
76814;SDS011;65768;49.906;19.384;2023-07-20T02:05:49;4.80;;;2.70;;
76814;SDS011;65768;49.906;19.384;2023-07-20T02:08:18;6.20;;;3.10;;
76814;SDS011;65768;49.906;19.384;2023-07-20T02:10:46;3.80;;;2.20;;
76814;SDS011;65768;49.906;19.384;2023-07-20T02:13:15;8.10;;;3.10;;
76814;SDS011;65768;49.906;19.384;2023-07-20T02:15:43;7.60;;;3.40;;
76814;SDS011;65768;49.906;19.384;2023-07-20T02:18:12;5.50;;;3.00;;
76814;SDS011;65768;49.906;19.384;2023-07-20T02:20:41;6.50;;;2.90;;
76814;SDS011;65768;49.906;19.384;2023-07-20T02:23:09;4.00;;;2.30;;
76814;SDS011;65768;49.906;19.384;2023-07-20T02:25:38;6.30;;;2.90;;
76814;SDS011;65768;49.906;19.384;2023-07-20T02:28:07;6.80;;;2.80;;
76814;SDS011;65768;49.906;19.384;2023-07-20T02:30:39;5.70;;;2.90;;
76814;SDS011;65768;49.906;19.384;2023-07-20T02:33:08;5.10;;;2.80;;
76814;SDS011;65768;49.906;19.384;2023-07-20T02:35:36;4.00;;;2.30;;
76814;SDS011;65768;49.906;19.384;2023-07-20T02:38:04;4.50;;;2.20;;
76814;SDS011;65768;49.906;19.384;2023-07-20T02:40:34;4.30;;;3.20;;
76814;SDS011;65768;49.906;19.384;2023-07-20T02:43:02;5.30;;;3.10;;
76814;SDS011;65768;49.906;19.384;2023-07-20T02:45:30;5.20;;;2.40;;
76814;SDS011;65768;49.906;19.384;2023-07-20T02:47:59;5.60;;;2.70;;
76814;SDS011;65768;49.906;19.384;2023-07-20T02:50:27;9.00;;;3.30;;
76814;SDS011;65768;49.906;19.384;2023-07-20T02:52:55;6.30;;;2.40;;
76814;SDS011;65768;49.906;19.384;2023-07-20T02:55:23;5.30;;;3.20;;
76814;SDS011;65768;49.906;19.384;2023-07-20T02:57:51;5.70;;;3.50;;
76814;SDS011;65768;49.906;19.384;2023-07-20T03:00:20;6.90;;;3.60;;
76814;SDS011;65768;49.906;19.384;2023-07-20T03:02:50;5.40;;;2.90;;
76814;SDS011;65768;49.906;19.384;2023-07-20T03:05:23;6.00;;;3.00;;
76814;SDS011;65768;49.906;19.384;2023-07-20T03:07:53;5.60;;;3.40;;
76814;SDS011;65768;49.906;19.384;2023-07-20T03:10:21;6.40;;;3.20;;
76814;SDS011;65768;49.906;19.384;2023-07-20T03:12:49;7.00;;;4.00;;
76814;SDS011;65768;49.906;19.384;2023-07-20T03:15:17;7.60;;;3.30;;
76814;SDS011;65768;49.906;19.384;2023-07-20T03:17:45;6.50;;;3.10;;
76814;SDS011;65768;49.906;19.384;2023-07-20T03:20:13;3.80;;;3.00;;
76814;SDS011;65768;49.906;19.384;2023-07-20T03:22:42;5.80;;;3.30;;
76814;SDS011;65768;49.906;19.384;2023-07-20T03:25:10;5.90;;;3.00;;
76814;SDS011;65768;49.906;19.384;2023-07-20T03:27:38;8.20;;;3.20;;
76814;SDS011;65768;49.906;19.384;2023-07-20T03:30:07;7.20;;;3.70;;
76814;SDS011;65768;49.906;19.384;2023-07-20T03:32:37;6.60;;;2.80;;
76814;SDS011;65768;49.906;19.384;2023-07-20T03:35:05;5.20;;;2.90;;
76814;SDS011;65768;49.906;19.384;2023-07-20T03:37:34;6.40;;;2.80;;
76814;SDS011;65768;49.906;19.384;2023-07-20T03:40:04;7.40;;;3.00;;
76814;SDS011;65768;49.906;19.384;2023-07-20T03:42:32;7.60;;;3.20;;
76814;SDS011;65768;49.906;19.384;2023-07-20T03:45:01;4.80;;;2.70;;
76814;SDS011;65768;49.906;19.384;2023-07-20T03:47:32;5.30;;;2.90;;
76814;SDS011;65768;49.906;19.384;2023-07-20T03:50:00;5.80;;;3.20;;
76814;SDS011;65768;49.906;19.384;2023-07-20T03:52:28;5.30;;;2.70;;
76814;SDS011;65768;49.906;19.384;2023-07-20T03:54:57;5.60;;;2.60;;
76814;SDS011;65768;49.906;19.384;2023-07-20T03:57:25;6.20;;;2.70;;
76814;SDS011;65768;49.906;19.384;2023-07-20T03:59:53;6.60;;;2.40;;
76814;SDS011;65768;49.906;19.384;2023-07-20T04:02:26;4.50;;;2.80;;
76814;SDS011;65768;49.906;19.384;2023-07-20T04:04:54;5.80;;;2.60;;
76814;SDS011;65768;49.906;19.384;2023-07-20T04:07:22;7.80;;;3.90;;
76814;SDS011;65768;49.906;19.384;2023-07-20T04:09:50;5.70;;;2.60;;
76814;SDS011;65768;49.906;19.384;2023-07-20T04:12:19;3.90;;;2.70;;
76814;SDS011;65768;49.906;19.384;2023-07-20T04:14:47;4.40;;;2.50;;
76814;SDS011;65768;49.906;19.384;2023-07-20T04:17:15;5.40;;;2.60;;
76814;SDS011;65768;49.906;19.384;2023-07-20T04:19:43;4.70;;;2.60;;
76814;SDS011;65768;49.906;19.384;2023-07-20T04:22:12;6.10;;;2.50;;
76814;SDS011;65768;49.906;19.384;2023-07-20T04:24:43;4.70;;;3.00;;
76814;SDS011;65768;49.906;19.384;2023-07-20T04:27:11;5.20;;;3.00;;
76814;SDS011;65768;49.906;19.384;2023-07-20T04:29:39;5.40;;;2.60;;
76814;SDS011;65768;49.906;19.384;2023-07-20T04:32:08;3.60;;;2.60;;
76814;SDS011;65768;49.906;19.384;2023-07-20T04:34:36;4.40;;;2.60;;
76814;SDS011;65768;49.906;19.384;2023-07-20T04:37:05;4.10;;;2.60;;
76814;SDS011;65768;49.906;19.384;2023-07-20T04:39:33;3.60;;;2.30;;
76814;SDS011;65768;49.906;19.384;2023-07-20T04:42:01;6.00;;;2.90;;
76814;SDS011;65768;49.906;19.384;2023-07-20T04:44:29;6.00;;;3.30;;
76814;SDS011;65768;49.906;19.384;2023-07-20T04:46:57;6.90;;;3.00;;
76814;SDS011;65768;49.906;19.384;2023-07-20T04:49:25;4.70;;;2.60;;
76814;SDS011;65768;49.906;19.384;2023-07-20T04:51:54;8.60;;;3.60;;
76814;SDS011;65768;49.906;19.384;2023-07-20T04:54:22;5.20;;;2.90;;
76814;SDS011;65768;49.906;19.384;2023-07-20T04:56:50;6.30;;;2.80;;
76814;SDS011;65768;49.906;19.384;2023-07-20T04:59:18;4.70;;;3.20;;
76814;SDS011;65768;49.906;19.384;2023-07-20T05:01:47;5.40;;;2.50;;
76814;SDS011;65768;49.906;19.384;2023-07-20T05:04:15;4.30;;;2.60;;
76814;SDS011;65768;49.906;19.384;2023-07-20T05:06:43;5.40;;;2.60;;
76814;SDS011;65768;49.906;19.384;2023-07-20T05:09:12;4.50;;;3.00;;
76814;SDS011;65768;49.906;19.384;2023-07-20T05:11:40;5.10;;;3.00;;
76814;SDS011;65768;49.906;19.384;2023-07-20T05:14:08;4.70;;;2.80;;
76814;SDS011;65768;49.906;19.384;2023-07-20T05:16:36;5.30;;;2.70;;
76814;SDS011;65768;49.906;19.384;2023-07-20T05:19:04;5.20;;;2.60;;
76814;SDS011;65768;49.906;19.384;2023-07-20T05:21:32;6.90;;;2.90;;
76814;SDS011;65768;49.906;19.384;2023-07-20T05:24:00;5.70;;;2.60;;
76814;SDS011;65768;49.906;19.384;2023-07-20T05:26:29;7.10;;;3.10;;
76814;SDS011;65768;49.906;19.384;2023-07-20T05:28:57;5.80;;;2.60;;
76814;SDS011;65768;49.906;19.384;2023-07-20T05:31:25;5.10;;;2.80;;
76814;SDS011;65768;49.906;19.384;2023-07-20T05:33:54;5.20;;;2.50;;
76814;SDS011;65768;49.906;19.384;2023-07-20T05:36:22;4.80;;;2.50;;
76814;SDS011;65768;49.906;19.384;2023-07-20T05:38:50;5.60;;;3.10;;
76814;SDS011;65768;49.906;19.384;2023-07-20T05:41:18;7.10;;;2.60;;
76814;SDS011;65768;49.906;19.384;2023-07-20T05:43:47;7.10;;;3.50;;
76814;SDS011;65768;49.906;19.384;2023-07-20T05:46:15;6.90;;;3.60;;
76814;SDS011;65768;49.906;19.384;2023-07-20T05:48:43;4.30;;;3.10;;
76814;SDS011;65768;49.906;19.384;2023-07-20T05:51:11;6.40;;;2.90;;
76814;SDS011;65768;49.906;19.384;2023-07-20T05:53:40;5.40;;;2.70;;
76814;SDS011;65768;49.906;19.384;2023-07-20T05:56:08;6.60;;;2.20;;
76814;SDS011;65768;49.906;19.384;2023-07-20T05:58:38;6.00;;;2.80;;
76814;SDS011;65768;49.906;19.384;2023-07-20T06:01:07;4.80;;;2.90;;
76814;SDS011;65768;49.906;19.384;2023-07-20T06:03:35;5.20;;;2.70;;
76814;SDS011;65768;49.906;19.384;2023-07-20T06:06:03;4.00;;;2.50;;
76814;SDS011;65768;49.906;19.384;2023-07-20T06:08:36;4.10;;;2.40;;
76814;SDS011;65768;49.906;19.384;2023-07-20T06:11:04;3.80;;;2.50;;
76814;SDS011;65768;49.906;19.384;2023-07-20T06:13:33;4.80;;;3.00;;
76814;SDS011;65768;49.906;19.384;2023-07-20T06:16:01;3.80;;;2.70;;
76814;SDS011;65768;49.906;19.384;2023-07-20T06:18:31;6.60;;;2.90;;
76814;SDS011;65768;49.906;19.384;2023-07-20T06:20:59;4.60;;;2.40;;
76814;SDS011;65768;49.906;19.384;2023-07-20T06:23:28;4.50;;;2.90;;
76814;SDS011;65768;49.906;19.384;2023-07-20T06:25:56;5.70;;;2.40;;
76814;SDS011;65768;49.906;19.384;2023-07-20T06:28:24;5.20;;;2.50;;
76814;SDS011;65768;49.906;19.384;2023-07-20T06:30:52;5.20;;;2.40;;
76814;SDS011;65768;49.906;19.384;2023-07-20T06:33:27;5.80;;;2.60;;
76814;SDS011;65768;49.906;19.384;2023-07-20T06:35:57;5.40;;;2.30;;
76814;SDS011;65768;49.906;19.384;2023-07-20T06:38:28;5.70;;;2.60;;
76814;SDS011;65768;49.906;19.384;2023-07-20T06:40:57;4.00;;;2.20;;
76814;SDS011;65768;49.906;19.384;2023-07-20T06:43:25;5.20;;;2.40;;
76814;SDS011;65768;49.906;19.384;2023-07-20T06:45:53;4.70;;;2.20;;
76814;SDS011;65768;49.906;19.384;2023-07-20T06:48:22;3.10;;;1.70;;
76814;SDS011;65768;49.906;19.384;2023-07-20T06:50:50;5.70;;;2.20;;
76814;SDS011;65768;49.906;19.384;2023-07-20T06:53:18;4.60;;;2.40;;
76814;SDS011;65768;49.906;19.384;2023-07-20T06:55:46;4.10;;;2.30;;
76814;SDS011;65768;49.906;19.384;2023-07-20T06:58:14;4.10;;;2.10;;
76814;SDS011;65768;49.906;19.384;2023-07-20T07:00:42;3.30;;;1.60;;
76814;SDS011;65768;49.906;19.384;2023-07-20T07:03:10;4.30;;;2.00;;
76814;SDS011;65768;49.906;19.384;2023-07-20T07:05:38;5.00;;;1.90;;
76814;SDS011;65768;49.906;19.384;2023-07-20T07:08:07;3.80;;;2.00;;
76814;SDS011;65768;49.906;19.384;2023-07-20T07:10:36;4.40;;;1.90;;
76814;SDS011;65768;49.906;19.384;2023-07-20T07:13:04;2.90;;;1.60;;
76814;SDS011;65768;49.906;19.384;2023-07-20T07:15:33;3.70;;;1.70;;
76814;SDS011;65768;49.906;19.384;2023-07-20T07:18:01;4.00;;;2.10;;
76814;SDS011;65768;49.906;19.384;2023-07-20T07:20:31;3.40;;;2.00;;
76814;SDS011;65768;49.906;19.384;2023-07-20T07:22:59;2.30;;;1.50;;
76814;SDS011;65768;49.906;19.384;2023-07-20T07:25:28;3.60;;;2.20;;
76814;SDS011;65768;49.906;19.384;2023-07-20T07:27:56;3.10;;;1.50;;
76814;SDS011;65768;49.906;19.384;2023-07-20T07:30:24;6.20;;;1.90;;
76814;SDS011;65768;49.906;19.384;2023-07-20T07:32:52;3.80;;;1.80;;
76814;SDS011;65768;49.906;19.384;2023-07-20T07:35:20;2.50;;;1.90;;
76814;SDS011;65768;49.906;19.384;2023-07-20T07:37:49;4.10;;;1.40;;
76814;SDS011;65768;49.906;19.384;2023-07-20T07:40:17;2.40;;;1.20;;
76814;SDS011;65768;49.906;19.384;2023-07-20T07:42:45;2.70;;;1.30;;
76814;SDS011;65768;49.906;19.384;2023-07-20T07:45:13;3.60;;;2.30;;
76814;SDS011;65768;49.906;19.384;2023-07-20T07:47:42;7.30;;;1.70;;
76814;SDS011;65768;49.906;19.384;2023-07-20T07:50:10;5.30;;;1.60;;
76814;SDS011;65768;49.906;19.384;2023-07-20T07:52:38;4.10;;;1.80;;
76814;SDS011;65768;49.906;19.384;2023-07-20T07:55:06;3.00;;;1.50;;
76814;SDS011;65768;49.906;19.384;2023-07-20T07:57:35;3.60;;;1.30;;
76814;SDS011;65768;49.906;19.384;2023-07-20T08:00:03;3.10;;;1.60;;
76814;SDS011;65768;49.906;19.384;2023-07-20T08:02:32;4.00;;;1.80;;
76814;SDS011;65768;49.906;19.384;2023-07-20T08:05:00;3.00;;;1.60;;
76814;SDS011;65768;49.906;19.384;2023-07-20T08:07:28;2.60;;;1.40;;
76814;SDS011;65768;49.906;19.384;2023-07-20T08:09:57;6.20;;;1.40;;
76814;SDS011;65768;49.906;19.384;2023-07-20T08:12:26;4.70;;;1.40;;
76814;SDS011;65768;49.906;19.384;2023-07-20T08:14:55;2.60;;;1.50;;
76814;SDS011;65768;49.906;19.384;2023-07-20T08:17:23;1.60;;;1.10;;
76814;SDS011;65768;49.906;19.384;2023-07-20T08:19:52;3.50;;;1.50;;
76814;SDS011;65768;49.906;19.384;2023-07-20T08:22:20;3.20;;;1.50;;
76814;SDS011;65768;49.906;19.384;2023-07-20T08:24:49;2.90;;;1.30;;
76814;SDS011;65768;49.906;19.384;2023-07-20T08:27:17;2.10;;;1.10;;
76814;SDS011;65768;49.906;19.384;2023-07-20T08:29:45;2.70;;;1.40;;
76814;SDS011;65768;49.906;19.384;2023-07-20T08:32:13;3.20;;;1.20;;
76814;SDS011;65768;49.906;19.384;2023-07-20T08:34:42;5.40;;;1.80;;
76814;SDS011;65768;49.906;19.384;2023-07-20T08:37:10;4.50;;;1.20;;
76814;SDS011;65768;49.906;19.384;2023-07-20T08:39:38;4.80;;;1.70;;
76814;SDS011;65768;49.906;19.384;2023-07-20T08:42:07;5.50;;;1.90;;
76814;SDS011;65768;49.906;19.384;2023-07-20T08:44:38;3.60;;;1.70;;
76814;SDS011;65768;49.906;19.384;2023-07-20T08:47:09;2.60;;;1.50;;
76814;SDS011;65768;49.906;19.384;2023-07-20T08:49:40;2.30;;;1.30;;
76814;SDS011;65768;49.906;19.384;2023-07-20T08:52:09;3.70;;;1.70;;
76814;SDS011;65768;49.906;19.384;2023-07-20T08:54:38;4.80;;;2.30;;
76814;SDS011;65768;49.906;19.384;2023-07-20T08:57:07;4.80;;;1.70;;
76814;SDS011;65768;49.906;19.384;2023-07-20T08:59:36;3.40;;;2.20;;
76814;SDS011;65768;49.906;19.384;2023-07-20T09:02:05;3.00;;;1.50;;
76814;SDS011;65768;49.906;19.384;2023-07-20T09:04:36;5.00;;;1.40;;
76814;SDS011;65768;49.906;19.384;2023-07-20T09:07:04;3.60;;;1.40;;
76814;SDS011;65768;49.906;19.384;2023-07-20T09:09:33;2.60;;;1.40;;
76814;SDS011;65768;49.906;19.384;2023-07-20T09:12:01;2.60;;;1.20;;
76814;SDS011;65768;49.906;19.384;2023-07-20T09:14:30;3.40;;;1.40;;
76814;SDS011;65768;49.906;19.384;2023-07-20T09:16:59;2.90;;;1.40;;
76814;SDS011;65768;49.906;19.384;2023-07-20T09:19:27;3.10;;;1.10;;
76814;SDS011;65768;49.906;19.384;2023-07-20T09:21:55;2.00;;;1.20;;
76814;SDS011;65768;49.906;19.384;2023-07-20T09:24:24;2.00;;;1.00;;
76814;SDS011;65768;49.906;19.384;2023-07-20T09:26:53;2.30;;;1.30;;
76814;SDS011;65768;49.906;19.384;2023-07-20T09:29:22;2.00;;;1.10;;
76814;SDS011;65768;49.906;19.384;2023-07-20T09:31:59;2.60;;;1.10;;
76814;SDS011;65768;49.906;19.384;2023-07-20T09:34:29;2.20;;;1.20;;
76814;SDS011;65768;49.906;19.384;2023-07-20T09:36:59;3.10;;;1.30;;
76814;SDS011;65768;49.906;19.384;2023-07-20T09:39:30;2.60;;;1.20;;
76814;SDS011;65768;49.906;19.384;2023-07-20T09:42:01;3.80;;;1.50;;
76814;SDS011;65768;49.906;19.384;2023-07-20T09:46:58;3.70;;;1.60;;
76814;SDS011;65768;49.906;19.384;2023-07-20T09:49:26;2.30;;;1.20;;
76814;SDS011;65768;49.906;19.384;2023-07-20T09:51:55;3.90;;;1.40;;
76814;SDS011;65768;49.906;19.384;2023-07-20T09:54:25;3.10;;;1.30;;
76814;SDS011;65768;49.906;19.384;2023-07-20T09:56:55;3.50;;;1.40;;
76814;SDS011;65768;49.906;19.384;2023-07-20T09:59:24;3.40;;;1.30;;
76814;SDS011;65768;49.906;19.384;2023-07-20T10:01:53;2.40;;;1.50;;
76814;SDS011;65768;49.906;19.384;2023-07-20T10:04:26;3.00;;;1.40;;
76814;SDS011;65768;49.906;19.384;2023-07-20T10:06:56;2.40;;;1.40;;
76814;SDS011;65768;49.906;19.384;2023-07-20T10:11:58;1.60;;;0.90;;
76814;SDS011;65768;49.906;19.384;2023-07-20T10:14:27;4.70;;;1.20;;
76814;SDS011;65768;49.906;19.384;2023-07-20T10:17:01;3.90;;;1.20;;
76814;SDS011;65768;49.906;19.384;2023-07-20T10:22:14;3.40;;;1.40;;
76814;SDS011;65768;49.906;19.384;2023-07-20T10:24:46;3.40;;;1.30;;
76814;SDS011;65768;49.906;19.384;2023-07-20T10:27:17;3.30;;;2.00;;
76814;SDS011;65768;49.906;19.384;2023-07-20T10:29:46;3.10;;;1.50;;
76814;SDS011;65768;49.906;19.384;2023-07-20T10:32:15;3.70;;;1.30;;
76814;SDS011;65768;49.906;19.384;2023-07-20T10:34:49;3.70;;;1.40;;
76814;SDS011;65768;49.906;19.384;2023-07-20T10:37:45;3.60;;;1.60;;
76814;SDS011;65768;49.906;19.384;2023-07-20T10:43:13;4.10;;;1.60;;
76814;SDS011;65768;49.906;19.384;2023-07-20T10:45:50;2.60;;;1.40;;
76814;SDS011;65768;49.906;19.384;2023-07-20T10:48:21;3.80;;;1.60;;
76814;SDS011;65768;49.906;19.384;2023-07-20T10:51:11;1.90;;;1.10;;
76814;SDS011;65768;49.906;19.384;2023-07-20T10:53:44;6.00;;;1.50;;
76814;SDS011;65768;49.906;19.384;2023-07-20T10:56:12;2.60;;;1.70;;
76814;SDS011;65768;49.906;19.384;2023-07-20T10:58:44;2.00;;;1.30;;
76814;SDS011;65768;49.906;19.384;2023-07-20T11:01:16;3.80;;;1.90;;
76814;SDS011;65768;49.906;19.384;2023-07-20T11:03:48;4.00;;;1.70;;
76814;SDS011;65768;49.906;19.384;2023-07-20T11:11:39;2.20;;;1.40;;
76814;SDS011;65768;49.906;19.384;2023-07-20T11:14:09;4.00;;;1.50;;
76814;SDS011;65768;49.906;19.384;2023-07-20T11:17:10;3.80;;;1.90;;
76814;SDS011;65768;49.906;19.384;2023-07-20T11:19:40;3.40;;;1.60;;
76814;SDS011;65768;49.906;19.384;2023-07-20T11:22:09;3.90;;;1.70;;
76814;SDS011;65768;49.906;19.384;2023-07-20T11:24:41;2.90;;;1.60;;
76814;SDS011;65768;49.906;19.384;2023-07-20T11:27:10;3.10;;;1.80;;
76814;SDS011;65768;49.906;19.384;2023-07-20T11:29:38;2.50;;;1.50;;
76814;SDS011;65768;49.906;19.384;2023-07-20T11:32:06;3.00;;;1.60;;
76814;SDS011;65768;49.906;19.384;2023-07-20T11:34:35;3.00;;;1.80;;
76814;SDS011;65768;49.906;19.384;2023-07-20T11:37:05;3.90;;;2.00;;
76814;SDS011;65768;49.906;19.384;2023-07-20T11:39:34;6.00;;;2.30;;
76814;SDS011;65768;49.906;19.384;2023-07-20T11:42:02;6.80;;;2.40;;
76814;SDS011;65768;49.906;19.384;2023-07-20T11:44:30;6.00;;;2.20;;
76814;SDS011;65768;49.906;19.384;2023-07-20T11:47:17;12.40;;;2.70;;
76814;SDS011;65768;49.906;19.384;2023-07-20T11:49:46;3.20;;;1.80;;
76814;SDS011;65768;49.906;19.384;2023-07-20T11:52:18;3.60;;;2.10;;
76814;SDS011;65768;49.906;19.384;2023-07-20T11:54:46;6.10;;;1.90;;
76814;SDS011;65768;49.906;19.384;2023-07-20T11:57:19;5.10;;;2.10;;
76814;SDS011;65768;49.906;19.384;2023-07-20T11:59:54;6.60;;;2.40;;
76814;SDS011;65768;49.906;19.384;2023-07-20T12:02:32;7.20;;;2.60;;
76814;SDS011;65768;49.906;19.384;2023-07-20T12:05:02;2.90;;;1.80;;
76814;SDS011;65768;49.906;19.384;2023-07-20T12:07:32;3.30;;;2.30;;
76814;SDS011;65768;49.906;19.384;2023-07-20T12:10:05;6.60;;;2.50;;
76814;SDS011;65768;49.906;19.384;2023-07-20T12:12:38;4.50;;;2.70;;
76814;SDS011;65768;49.906;19.384;2023-07-20T12:15:22;9.50;;;3.30;;
76814;SDS011;65768;49.906;19.384;2023-07-20T12:17:55;4.80;;;1.80;;
76814;SDS011;65768;49.906;19.384;2023-07-20T12:20:34;3.90;;;2.20;;
76814;SDS011;65768;49.906;19.384;2023-07-20T12:23:05;5.70;;;2.40;;
76814;SDS011;65768;49.906;19.384;2023-07-20T12:25:37;3.70;;;1.70;;
76814;SDS011;65768;49.906;19.384;2023-07-20T12:28:13;3.80;;;2.80;;
76814;SDS011;65768;49.906;19.384;2023-07-20T12:30:43;2.90;;;2.10;;
76814;SDS011;65768;49.906;19.384;2023-07-20T12:33:12;3.80;;;2.00;;
76814;SDS011;65768;49.906;19.384;2023-07-20T12:38:12;5.00;;;2.10;;
76814;SDS011;65768;49.906;19.384;2023-07-20T12:40:40;4.40;;;2.00;;
76814;SDS011;65768;49.906;19.384;2023-07-20T12:43:08;4.20;;;2.00;;
76814;SDS011;65768;49.906;19.384;2023-07-20T12:45:36;3.10;;;1.80;;
76814;SDS011;65768;49.906;19.384;2023-07-20T12:48:05;2.80;;;1.70;;
76814;SDS011;65768;49.906;19.384;2023-07-20T12:50:33;3.80;;;1.90;;
76814;SDS011;65768;49.906;19.384;2023-07-20T12:53:01;2.90;;;2.00;;
76814;SDS011;65768;49.906;19.384;2023-07-20T12:55:31;3.60;;;1.70;;
76814;SDS011;65768;49.906;19.384;2023-07-20T12:57:59;3.40;;;1.90;;
76814;SDS011;65768;49.906;19.384;2023-07-20T13:00:28;2.00;;;1.60;;
76814;SDS011;65768;49.906;19.384;2023-07-20T13:02:56;4.50;;;1.80;;
76814;SDS011;65768;49.906;19.384;2023-07-20T13:05:24;3.10;;;1.70;;
76814;SDS011;65768;49.906;19.384;2023-07-20T13:07:53;5.10;;;2.30;;
76814;SDS011;65768;49.906;19.384;2023-07-20T13:10:21;3.80;;;1.70;;
76814;SDS011;65768;49.906;19.384;2023-07-20T13:12:49;6.10;;;2.00;;
76814;SDS011;65768;49.906;19.384;2023-07-20T13:15:17;2.80;;;1.80;;
76814;SDS011;65768;49.906;19.384;2023-07-20T13:17:46;2.80;;;1.70;;
76814;SDS011;65768;49.906;19.384;2023-07-20T13:20:15;2.70;;;1.50;;
76814;SDS011;65768;49.906;19.384;2023-07-20T13:22:43;4.30;;;2.10;;
76814;SDS011;65768;49.906;19.384;2023-07-20T13:25:11;3.80;;;1.60;;
76814;SDS011;65768;49.906;19.384;2023-07-20T13:27:39;4.80;;;2.10;;
76814;SDS011;65768;49.906;19.384;2023-07-20T13:30:07;3.80;;;2.10;;
76814;SDS011;65768;49.906;19.384;2023-07-20T13:32:37;3.90;;;1.90;;
76814;SDS011;65768;49.906;19.384;2023-07-20T13:35:05;2.20;;;1.50;;
76814;SDS011;65768;49.906;19.384;2023-07-20T13:37:33;4.00;;;1.70;;
76814;SDS011;65768;49.906;19.384;2023-07-20T13:40:01;2.60;;;1.70;;
76814;SDS011;65768;49.906;19.384;2023-07-20T13:42:32;4.70;;;1.70;;
76814;SDS011;65768;49.906;19.384;2023-07-20T13:45:00;4.20;;;1.70;;
76814;SDS011;65768;49.906;19.384;2023-07-20T13:47:28;2.40;;;1.40;;
76814;SDS011;65768;49.906;19.384;2023-07-20T13:49:57;2.90;;;1.50;;
76814;SDS011;65768;49.906;19.384;2023-07-20T13:52:25;2.80;;;1.50;;
76814;SDS011;65768;49.906;19.384;2023-07-20T13:54:53;2.40;;;1.70;;
76814;SDS011;65768;49.906;19.384;2023-07-20T13:57:21;4.40;;;1.40;;
76814;SDS011;65768;49.906;19.384;2023-07-20T13:59:49;1.90;;;1.40;;
76814;SDS011;65768;49.906;19.384;2023-07-20T14:02:17;4.90;;;1.70;;
76814;SDS011;65768;49.906;19.384;2023-07-20T14:04:45;2.80;;;1.40;;
76814;SDS011;65768;49.906;19.384;2023-07-20T14:07:13;3.40;;;1.70;;
76814;SDS011;65768;49.906;19.384;2023-07-20T14:09:41;2.90;;;1.60;;
76814;SDS011;65768;49.906;19.384;2023-07-20T14:12:09;3.20;;;1.60;;
76814;SDS011;65768;49.906;19.384;2023-07-20T14:14:40;4.00;;;1.70;;
76814;SDS011;65768;49.906;19.384;2023-07-20T14:17:11;2.80;;;1.90;;
76814;SDS011;65768;49.906;19.384;2023-07-20T14:19:39;3.70;;;1.40;;
76814;SDS011;65768;49.906;19.384;2023-07-20T14:22:07;5.30;;;1.30;;
76814;SDS011;65768;49.906;19.384;2023-07-20T14:24:35;2.10;;;1.20;;
76814;SDS011;65768;49.906;19.384;2023-07-20T14:27:03;4.90;;;1.80;;
76814;SDS011;65768;49.906;19.384;2023-07-20T14:29:31;2.60;;;1.50;;
76814;SDS011;65768;49.906;19.384;2023-07-20T14:32:00;2.60;;;1.50;;
76814;SDS011;65768;49.906;19.384;2023-07-20T14:34:28;3.40;;;1.60;;
76814;SDS011;65768;49.906;19.384;2023-07-20T14:36:58;3.20;;;1.60;;
76814;SDS011;65768;49.906;19.384;2023-07-20T14:39:27;2.70;;;1.60;;
76814;SDS011;65768;49.906;19.384;2023-07-20T14:41:55;2.70;;;1.50;;
76814;SDS011;65768;49.906;19.384;2023-07-20T14:44:23;2.90;;;1.90;;
76814;SDS011;65768;49.906;19.384;2023-07-20T14:46:52;3.20;;;1.90;;
76814;SDS011;65768;49.906;19.384;2023-07-20T14:49:20;2.50;;;1.70;;
76814;SDS011;65768;49.906;19.384;2023-07-20T14:51:48;4.60;;;1.70;;
76814;SDS011;65768;49.906;19.384;2023-07-20T14:54:17;2.40;;;1.50;;
76814;SDS011;65768;49.906;19.384;2023-07-20T14:56:49;9.40;;;1.90;;
76814;SDS011;65768;49.906;19.384;2023-07-20T14:59:20;3.70;;;1.80;;
76814;SDS011;65768;49.906;19.384;2023-07-20T15:01:48;4.50;;;2.10;;
76814;SDS011;65768;49.906;19.384;2023-07-20T15:04:16;3.40;;;2.30;;
76814;SDS011;65768;49.906;19.384;2023-07-20T15:06:44;5.50;;;2.70;;
76814;SDS011;65768;49.906;19.384;2023-07-20T15:09:12;5.00;;;3.00;;
76814;SDS011;65768;49.906;19.384;2023-07-20T15:11:40;3.30;;;2.40;;
76814;SDS011;65768;49.906;19.384;2023-07-20T15:14:08;6.70;;;2.10;;
76814;SDS011;65768;49.906;19.384;2023-07-20T15:16:37;3.80;;;2.90;;